createdAt,value
2023-03-26T00:01:41.803Z,99534.78
2023-03-26T00:03:47.285Z,99530.25
2023-03-26T00:05:51.734Z,99532.03
2023-03-26T00:07:55.940Z,99531.53
2023-03-26T00:09:59.698Z,99532.19
2023-03-26T00:12:03.499Z,99524.00
2023-03-26T00:14:07.475Z,99538.13
2023-03-26T00:16:14.212Z,99533.06
2023-03-26T00:18:20.301Z,99535.72
2023-03-26T00:20:24.436Z,99535.72
2023-03-26T00:22:28.035Z,99538.34
2023-03-26T00:24:31.794Z,99538.22
2023-03-26T00:26:38.586Z,99542.56
2023-03-26T00:28:43.870Z,99546.97
2023-03-26T00:30:47.116Z,99537.47
2023-03-26T00:32:53.627Z,99542.88
2023-03-26T00:34:57.706Z,99543.81
2023-03-26T00:37:02.723Z,99544.78
2023-03-26T00:39:07.145Z,99549.31
2023-03-26T00:41:17.874Z,99553.63
2023-03-26T00:43:23.915Z,99546.25
2023-03-26T00:45:27.728Z,99546.78
2023-03-26T00:47:31.838Z,99549.91
2023-03-26T00:49:36.926Z,99539.88
2023-03-26T00:51:40.557Z,99543.16
2023-03-26T00:53:45.482Z,99542.09
2023-03-26T00:55:49.460Z,99538.28
2023-03-26T00:57:53.121Z,99533.59
2023-03-26T00:59:57.174Z,99533.38
2023-03-26T01:02:00.878Z,99541.91
2023-03-26T01:04:24.366Z,99540.03
2023-03-26T01:06:32.978Z,99547.72
2023-03-26T01:08:39.675Z,99553.09
2023-03-26T01:10:45.010Z,99543.38
2023-03-26T01:12:48.768Z,99541.38
2023-03-26T01:14:54.644Z,99536.69
2023-03-26T01:16:59.891Z,99541.78
2023-03-26T01:19:03.637Z,99544.41
2023-03-26T01:21:09.751Z,99543.44
2023-03-26T01:23:21.128Z,99550.16
2023-03-26T01:25:29.480Z,99551.84
2023-03-26T01:27:39.596Z,99557.13
2023-03-26T01:29:47.288Z,99551.25
2023-03-26T01:32:04.174Z,99547.75
2023-03-26T01:34:14.248Z,99552.31
2023-03-26T01:36:23.849Z,99552.50
2023-03-26T01:38:35.710Z,99557.78
2023-03-26T01:40:47.322Z,99558.75
2023-03-26T01:43:00.640Z,99564.88
2023-03-26T01:45:11.502Z,99559.47
2023-03-26T01:47:17.772Z,99564.53
2023-03-26T01:49:22.846Z,99558.94
2023-03-26T01:51:30.266Z,99563.25
2023-03-26T01:53:34.791Z,99562.41
2023-03-26T01:55:53.995Z,99557.13
2023-03-26T01:58:07.002Z,99560.50
2023-03-26T02:00:22.270Z,99561.97
2023-03-26T02:02:32.213Z,99559.22
2023-03-26T02:04:42.096Z,99566.06
2023-03-26T02:06:49.105Z,99564.03
2023-03-26T02:08:58.258Z,99564.66
2023-03-26T02:11:05.857Z,99567.91
2023-03-26T02:13:09.551Z,99573.06
2023-03-26T02:15:14.026Z,99571.25
2023-03-26T02:17:19.301Z,99564.22
2023-03-26T02:19:24.820Z,99569.50
2023-03-26T02:21:29.545Z,99571.38
2023-03-26T02:23:36.007Z,99567.28
2023-03-26T02:25:42.239Z,99572.69
2023-03-26T02:27:48.089Z,99573.50
2023-03-26T02:29:52.062Z,99577.97
2023-03-26T02:31:58.635Z,99583.22
2023-03-26T02:34:02.793Z,99572.69
2023-03-26T02:36:10.808Z,99584.06
2023-03-26T02:38:15.490Z,99581.41
2023-03-26T02:40:21.671Z,99591.16
2023-03-26T02:42:27.814Z,99585.75
2023-03-26T02:44:33.212Z,99586.94
2023-03-26T02:46:38.512Z,99591.50
2023-03-26T02:48:57.920Z,99596.97
2023-03-26T02:51:04.278Z,99597.81
2023-03-26T02:53:46.403Z,99600.56
2023-03-26T02:56:21.128Z,99602.25
2023-03-26T02:58:38.574Z,99605.75
2023-03-26T03:00:45.170Z,99605.81
2023-03-26T03:03:05.213Z,99613.72
2023-03-26T03:05:10.592Z,99611.31
2023-03-26T03:07:16.114Z,99616.84
2023-03-26T03:09:20.063Z,99623.91
2023-03-26T03:11:52.047Z,99626.63
2023-03-26T03:13:56.925Z,99632.03
2023-03-26T03:16:06.029Z,99634.53
2023-03-26T03:18:10.212Z,99636.34
2023-03-26T03:20:14.779Z,99645.09
2023-03-26T03:22:20.233Z,99640.78
2023-03-26T03:24:27.319Z,99639.72
2023-03-26T03:26:32.123Z,99638.88
2023-03-26T03:28:47.323Z,99638.03
2023-03-26T03:30:54.659Z,99638.16
2023-03-26T03:33:07.099Z,99633.72
2023-03-26T03:35:11.954Z,99640.78
2023-03-26T03:37:17.704Z,99638.34
2023-03-26T03:39:27.722Z,99645.31
2023-03-26T03:41:31.406Z,99646.19
2023-03-26T03:43:38.494Z,99643.44
2023-03-26T03:45:50.164Z,99650.38
2023-03-26T03:48:15.325Z,99649.53
2023-03-26T03:50:22.964Z,99654.81
2023-03-26T03:52:53.369Z,99657.44
2023-03-26T03:55:01.387Z,99657.22
2023-03-26T03:57:24.246Z,99659.97
2023-03-26T03:59:47.884Z,99659.75
2023-03-26T04:01:54.982Z,99668.50
2023-03-26T04:04:08.681Z,99667.78
2023-03-26T04:06:44.747Z,99676.75
2023-03-26T04:08:50.620Z,99673.50
2023-03-26T04:10:54.747Z,99679.59
2023-03-26T04:13:27.780Z,99680.34
2023-03-26T04:15:31.474Z,99673.16
2023-03-26T04:17:42.567Z,99678.19
2023-03-26T04:19:50.443Z,99687.09
2023-03-26T04:21:55.672Z,99687.09
2023-03-26T04:24:01.885Z,99694.25
2023-03-26T04:26:35.749Z,99705.03
2023-03-26T04:28:47.635Z,99709.06
2023-03-26T04:31:00.947Z,99713.91
2023-03-26T04:33:15.776Z,99719.19
2023-03-26T04:35:22.419Z,99717.06
2023-03-26T04:37:34.688Z,99726.75
2023-03-26T04:39:45.471Z,99732.66
2023-03-26T04:42:15.693Z,99736.03
2023-03-26T04:44:35.109Z,99739.41
2023-03-26T04:46:43.865Z,99747.44
2023-03-26T04:49:03.895Z,99754.38
2023-03-26T04:51:10.317Z,99753.31
2023-03-26T04:53:16.806Z,99762.41
2023-03-26T04:55:52.432Z,99766.63
2023-03-26T04:58:14.621Z,99774.84
2023-03-26T05:00:34.750Z,99782.88
2023-03-26T05:02:40.557Z,99784.66
2023-03-26T05:04:46.383Z,99790.03
2023-03-26T05:06:52.586Z,99794.47
2023-03-26T05:09:03.770Z,99798.06
2023-03-26T05:11:28.851Z,99806.72
2023-03-26T05:13:33.926Z,99798.69
2023-03-26T05:15:42.832Z,99810.09
2023-03-26T05:17:52.034Z,99815.34
2023-03-26T05:20:21.524Z,99824.84
2023-03-26T05:22:26.488Z,99826.72
2023-03-26T05:24:58.869Z,99838.25
2023-03-26T05:27:02.513Z,99838.34
2023-03-26T05:29:11.004Z,99842.78
2023-03-26T05:31:22.587Z,99846.34
2023-03-26T05:33:30.111Z,99857.97
2023-03-26T05:35:38.221Z,99859.03
2023-03-26T05:37:46.280Z,99868.69
2023-03-26T05:39:53.324Z,99871.16
2023-03-26T05:42:17.445Z,99874.63
2023-03-26T05:44:38.936Z,99873.78
2023-03-26T05:46:51.735Z,99889.69
2023-03-26T05:48:59.480Z,99892.53
2023-03-26T05:51:06.742Z,99895.16
2023-03-26T05:53:11.918Z,99892.63
2023-03-26T05:55:46.793Z,99902.25
2023-03-26T05:58:10.600Z,99909.28
2023-03-26T06:00:33.927Z,99912.78
2023-03-26T06:02:37.778Z,99917.19
2023-03-26T06:05:04.813Z,99926.91
2023-03-26T06:07:34.272Z,99933.22
2023-03-26T06:09:53.509Z,99945.47
2023-03-26T06:11:57.347Z,99947.16
2023-03-26T06:14:01.321Z,99946.50
2023-03-26T06:16:04.710Z,99955.25
2023-03-26T06:18:10.922Z,99962.44
2023-03-26T06:20:35.929Z,99966.84
2023-03-26T06:22:45.512Z,99968.84
2023-03-26T06:25:07.486Z,99974.63
2023-03-26T06:27:29.374Z,99981.03
2023-03-26T06:29:53.055Z,99991.78
2023-03-26T06:32:20.158Z,99995.34
2023-03-26T06:34:47.301Z,100001.47
2023-03-26T06:36:52.749Z,100005.06
2023-03-26T06:38:57.654Z,100013.88
2023-03-26T06:41:06.001Z,100025.25
2023-03-26T06:43:34.090Z,100020.88
2023-03-26T06:45:55.902Z,100027.16
2023-03-26T06:48:14.270Z,100033.47
2023-03-26T06:50:33.303Z,100037.25
2023-03-26T06:53:00.220Z,100036.31
2023-03-26T06:55:13.125Z,100048.56
2023-03-26T06:57:24.179Z,100057.09
2023-03-26T07:00:00.017Z,100055.75
2023-03-26T07:02:22.206Z,100060.94
2023-03-26T07:04:44.130Z,100069.59
2023-03-26T07:07:06.292Z,100073.06
2023-03-26T07:09:35.990Z,100081.63
2023-03-26T07:11:48.270Z,100095.38
2023-03-26T07:14:19.033Z,100096.00
2023-03-26T07:16:59.466Z,100107.63
2023-03-26T07:19:08.488Z,100106.84
2023-03-26T07:21:15.200Z,100119.31
2023-03-26T07:23:20.797Z,100120.88
2023-03-26T07:25:34.016Z,100129.53
2023-03-26T07:28:02.029Z,100133.78
2023-03-26T07:30:28.884Z,100147.81
2023-03-26T07:32:54.536Z,100150.53
2023-03-26T07:35:33.765Z,100152.13
2023-03-26T07:37:59.420Z,100162.88
2023-03-26T07:40:11.194Z,100169.00
2023-03-26T07:43:02.502Z,100174.25
2023-03-26T07:45:34.068Z,100175.19
2023-03-26T07:47:57.169Z,100186.88
2023-03-26T07:50:23.787Z,100196.88
2023-03-26T07:52:36.360Z,100202.88
2023-03-26T07:54:51.842Z,100205.53
2023-03-26T07:57:37.889Z,100208.72
2023-03-26T08:00:19.128Z,100217.66
2023-03-26T08:02:41.570Z,100220.59
2023-03-26T08:05:20.367Z,100236.75
2023-03-26T08:07:42.637Z,100244.47
2023-03-26T08:10:11.699Z,100244.88
2023-03-26T08:12:38.481Z,100254.00
2023-03-26T08:14:51.663Z,100257.66
2023-03-26T08:16:57.628Z,100262.94
2023-03-26T08:19:14.015Z,100273.47
2023-03-26T08:21:21.634Z,100282.50
2023-03-26T08:23:30.957Z,100280.63
2023-03-26T08:25:38.208Z,100282.34
2023-03-26T08:27:45.385Z,100284.88
2023-03-26T08:29:55.783Z,100297.28
2023-03-26T08:31:59.604Z,100302.56
2023-03-26T08:34:04.916Z,100298.31
2023-03-26T08:36:10.327Z,100319.59
2023-03-26T08:38:16.013Z,100322.59
2023-03-26T08:40:37.292Z,100331.44
2023-03-26T08:43:07.523Z,100339.25
2023-03-26T08:45:58.629Z,100339.16
2023-03-26T08:48:41.439Z,100359.50
2023-03-26T08:51:10.822Z,100360.22
2023-03-26T08:53:42.724Z,100364.28
2023-03-26T08:55:55.103Z,100374.66
2023-03-26T08:58:37.229Z,100375.53
2023-03-26T09:01:03.406Z,100376.25
2023-03-26T09:03:41.674Z,100387.91
2023-03-26T09:06:25.939Z,100398.06
2023-03-26T09:08:59.240Z,100399.44
2023-03-26T09:11:37.210Z,100402.78
2023-03-26T09:14:21.864Z,100414.41
2023-03-26T09:16:48.103Z,100416.59
2023-03-26T09:19:21.593Z,100423.41
2023-03-26T09:22:01.419Z,100434.53
2023-03-26T09:24:34.643Z,100438.59
2023-03-26T09:26:48.701Z,100451.53
2023-03-26T09:29:22.747Z,100458.34
2023-03-26T09:31:58.224Z,100459.69
2023-03-26T09:34:17.286Z,100469.47
2023-03-26T09:36:31.511Z,100473.03
2023-03-26T09:38:46.236Z,100482.97
2023-03-26T09:41:01.354Z,100484.09
2023-03-26T09:43:44.418Z,100495.81
2023-03-26T09:46:01.905Z,100501.28
2023-03-26T09:48:15.306Z,100509.22
2023-03-26T09:50:33.717Z,100510.34
2023-03-26T09:52:57.407Z,100525.50
2023-03-26T09:55:15.656Z,100532.53
2023-03-26T09:57:35.076Z,100540.78
2023-03-26T10:00:07.570Z,100547.13
2023-03-26T10:02:47.571Z,100559.22
2023-03-26T10:05:20.370Z,100563.88
2023-03-26T10:07:43.184Z,100567.38
2023-03-26T10:09:54.932Z,100575.03
2023-03-26T10:12:21.421Z,100580.72
2023-03-26T10:14:33.735Z,100576.50
2023-03-26T10:16:49.600Z,100585.00
2023-03-26T10:19:04.493Z,100586.13
2023-03-26T10:21:15.954Z,100601.47
2023-03-26T10:23:41.077Z,100605.19
2023-03-26T10:26:04.566Z,100602.19
2023-03-26T10:28:37.187Z,100621.81
2023-03-26T10:31:06.250Z,100623.78
2023-03-26T10:33:19.725Z,100630.50
2023-03-26T10:35:35.194Z,100642.41
2023-03-26T10:37:54.625Z,100645.81
2023-03-26T10:40:14.408Z,100644.72
2023-03-26T10:42:33.259Z,100656.66
2023-03-26T10:45:00.614Z,100662.06
2023-03-26T10:47:25.606Z,100663.16
2023-03-26T10:50:13.038Z,100669.84
2023-03-26T10:52:22.786Z,100670.38
2023-03-26T10:54:43.050Z,100679.91
2023-03-26T10:56:49.767Z,100690.56
2023-03-26T10:58:53.924Z,100685.72
2023-03-26T11:01:04.782Z,100695.31
2023-03-26T11:03:41.788Z,100700.28
2023-03-26T11:05:53.047Z,100710.28
2023-03-26T11:08:03.837Z,100713.69
2023-03-26T11:10:11.509Z,100720.53
2023-03-26T11:12:26.222Z,100727.09
2023-03-26T11:14:36.734Z,100739.97
2023-03-26T11:16:53.802Z,100737.44
2023-03-26T11:19:05.172Z,100747.47
2023-03-26T11:21:18.960Z,100749.03
2023-03-26T11:23:35.294Z,100749.09
2023-03-26T11:25:52.124Z,100752.63
2023-03-26T11:28:04.086Z,100760.34
2023-03-26T11:30:23.573Z,100762.06
2023-03-26T11:32:36.729Z,100763.38
2023-03-26T11:34:44.406Z,100776.63
2023-03-26T11:36:52.733Z,100775.53
2023-03-26T11:39:01.291Z,100778.16
2023-03-26T11:41:14.565Z,100786.06
2023-03-26T11:43:34.086Z,100788.72
2023-03-26T11:45:42.668Z,100795.78
2023-03-26T11:47:52.032Z,100801.72
2023-03-26T11:49:57.423Z,100799.97
2023-03-26T11:52:03.315Z,100808.88
2023-03-26T11:54:11.416Z,100819.56
2023-03-26T11:56:22.542Z,100829.16
2023-03-26T11:58:32.505Z,100833.66
2023-03-26T12:00:36.237Z,100835.50
2023-03-26T12:02:41.829Z,100843.38
2023-03-26T12:04:52.106Z,100849.16
2023-03-26T12:06:59.875Z,100847.47
2023-03-26T12:09:04.837Z,100856.78
2023-03-26T12:11:12.424Z,100860.97
2023-03-26T12:13:30.651Z,100867.34
2023-03-26T12:15:34.650Z,100884.28
2023-03-26T12:17:42.609Z,100882.84
2023-03-26T12:19:47.908Z,100884.16
2023-03-26T12:21:54.021Z,100893.69
2023-03-26T12:24:01.369Z,100905.94
2023-03-26T12:26:17.572Z,100907.66
2023-03-26T12:28:21.710Z,100915.81
2023-03-26T12:30:27.677Z,100929.22
2023-03-26T12:34:41.960Z,100917.81
2023-03-26T12:36:53.212Z,100918.81
2023-03-26T12:39:43.201Z,100924.72
2023-03-26T12:44:41.738Z,100929.47
2023-03-26T12:44:56.159Z,100937.75
2023-03-26T12:47:56.896Z,100945.22
2023-03-26T12:48:49.532Z,100953.59
2023-03-26T12:51:04.422Z,100962.34
2023-03-26T12:53:23.846Z,100957.78
2023-03-26T12:55:49.536Z,100969.72
2023-03-26T12:58:00.936Z,100971.19
2023-03-26T13:00:28.985Z,100972.97
2023-03-26T13:02:59.379Z,100983.00
2023-03-26T13:05:21.017Z,100984.53
2023-03-26T13:07:31.758Z,100978.25
2023-03-26T13:09:53.389Z,100988.97
2023-03-26T13:12:07.423Z,100994.56
2023-03-26T13:14:36.164Z,101004.94
2023-03-26T13:16:49.368Z,101005.50
2023-03-26T13:18:59.805Z,101005.13
2023-03-26T13:21:10.332Z,101012.09
2023-03-26T13:23:29.661Z,101004.78
2023-03-26T13:25:39.315Z,101008.66
2023-03-26T13:27:55.038Z,101009.50
2023-03-26T13:30:04.567Z,101019.31
2023-03-26T13:32:14.131Z,101014.59
2023-03-26T13:34:26.833Z,101017.69
2023-03-26T13:36:40.090Z,101027.69
2023-03-26T13:38:58.767Z,101031.34
2023-03-26T13:41:11.304Z,101033.91
2023-03-26T13:43:28.539Z,101033.44
2023-03-26T13:45:45.451Z,101045.47
2023-03-26T13:47:52.558Z,101046.00
2023-03-26T13:50:02.104Z,101051.66
2023-03-26T13:52:12.595Z,101050.19
2023-03-26T13:54:25.106Z,101059.56
2023-03-26T13:56:38.706Z,101073.63
2023-03-26T13:58:49.104Z,101073.03
2023-03-26T14:00:59.654Z,101073.41
2023-03-26T14:03:11.177Z,101072.78
2023-03-26T14:05:23.315Z,101070.78
2023-03-26T14:07:33.568Z,101075.03
2023-03-26T14:09:45.968Z,101078.78
2023-03-26T14:12:03.532Z,101084.25
2023-03-26T14:14:13.104Z,101081.19
2023-03-26T14:16:20.679Z,101084.63
2023-03-26T14:18:32.796Z,101084.38
2023-03-26T14:21:26.254Z,101079.44
2023-03-26T14:24:08.472Z,101080.06
2023-03-26T14:26:20.921Z,101071.94
2023-03-26T14:29:01.711Z,101077.88
2023-03-26T14:31:24.589Z,101089.72
2023-03-26T14:33:39.750Z,101095.63
2023-03-26T14:35:54.647Z,101094.75
2023-03-26T14:38:39.854Z,101099.69
2023-03-26T14:40:58.746Z,101106.41
2023-03-26T14:43:30.741Z,101112.03
2023-03-26T14:46:09.835Z,101111.69
2023-03-26T14:48:50.513Z,101127.06
2023-03-26T14:51:10.333Z,101133.09
2023-03-26T14:53:24.950Z,101144.59
2023-03-26T14:55:56.849Z,101139.44
2023-03-26T14:58:22.399Z,101135.88
2023-03-26T15:01:17.921Z,101141.94
2023-03-26T15:04:09.135Z,101143.25
2023-03-26T15:06:39.593Z,101148.44
2023-03-26T15:09:25.317Z,101166.16
2023-03-26T15:11:35.733Z,101161.03
2023-03-26T15:13:57.511Z,101178.19
2023-03-26T15:16:28.185Z,101171.66
2023-03-26T15:19:27.562Z,101175.94
2023-03-26T15:22:05.130Z,101186.03
2023-03-26T15:24:31.011Z,101194.31
2023-03-26T15:27:08.503Z,101202.16
2023-03-26T15:29:41.294Z,101212.00
2023-03-26T15:32:10.255Z,101220.06
2023-03-26T15:34:39.777Z,101213.13
2023-03-26T15:37:23.246Z,101211.44
2023-03-26T15:40:08.047Z,101217.25
2023-03-26T15:42:22.108Z,101218.31
2023-03-26T15:44:50.904Z,101222.81
2023-03-26T15:47:19.082Z,101220.88
2023-03-26T15:49:30.246Z,101226.16
2023-03-26T15:51:46.980Z,101230.88
2023-03-26T15:53:55.478Z,101233.75
2023-03-26T15:56:11.944Z,101230.03
2023-03-26T15:58:20.431Z,101234.44
2023-03-26T16:00:26.432Z,101236.75
2023-03-26T16:02:40.380Z,101230.81
2023-03-26T16:04:52.001Z,101229.97
2023-03-26T16:07:03.327Z,101236.97
2023-03-26T16:09:22.248Z,101243.09
2023-03-26T16:11:49.851Z,101247.44
2023-03-26T16:14:16.957Z,101256.72
2023-03-26T16:16:51.769Z,101261.97
2023-03-26T16:19:07.527Z,101274.41
2023-03-26T16:21:40.577Z,101276.03
2023-03-26T16:23:58.027Z,101272.88
2023-03-26T16:26:16.704Z,101279.94
2023-03-26T16:28:35.229Z,101279.16
2023-03-26T16:30:39.642Z,101279.22
2023-03-26T16:32:45.603Z,101280.91
2023-03-26T16:34:53.108Z,101295.25
2023-03-26T16:36:59.863Z,101300.59
2023-03-26T16:39:39.947Z,101309.47
2023-03-26T16:42:25.115Z,101313.25
2023-03-26T16:44:40.250Z,101315.88
2023-03-26T16:46:53.505Z,101323.41
2023-03-26T16:49:02.643Z,101330.50
2023-03-26T16:51:17.340Z,101336.78
2023-03-26T16:53:34.533Z,101333.22
2023-03-26T16:55:45.141Z,101336.91
2023-03-26T16:57:56.325Z,101351.00
2023-03-26T17:00:17.959Z,101348.44
2023-03-26T17:02:31.672Z,101352.88
2023-03-26T17:04:37.195Z,101358.38
2023-03-26T17:07:03.593Z,101364.53
2023-03-26T17:09:24.874Z,101368.84
2023-03-26T17:11:40.178Z,101375.09
2023-03-26T17:13:52.868Z,101386.47
2023-03-26T17:16:12.152Z,101393.34
2023-03-26T17:18:30.586Z,101394.22
2023-03-26T17:20:39.930Z,101394.22
2023-03-26T17:22:48.338Z,101404.03
2023-03-26T17:25:22.224Z,101408.56
2023-03-26T17:27:50.224Z,101422.72
2023-03-26T17:30:25.221Z,101423.59
2023-03-26T17:33:01.744Z,101419.97
2023-03-26T17:35:07.810Z,101418.19
2023-03-26T17:37:27.332Z,101429.66
2023-03-26T17:40:37.289Z,101428.81
2023-03-26T17:43:00.999Z,101435.06
2023-03-26T17:45:09.567Z,101437.69
2023-03-26T17:47:34.053Z,101438.59
2023-03-26T17:49:42.480Z,101444.81
2023-03-26T17:51:52.410Z,101448.44
2023-03-26T17:53:56.369Z,101456.41
2023-03-26T17:56:04.069Z,101453.72
2023-03-26T17:58:21.835Z,101450.25
2023-03-26T18:00:30.633Z,101449.47
2023-03-26T18:02:39.738Z,101454.91
2023-03-26T18:04:49.043Z,101466.44
2023-03-26T18:07:09.341Z,101466.44
2023-03-26T18:09:26.371Z,101475.22
2023-03-26T18:11:54.591Z,101476.94
2023-03-26T18:14:43.194Z,101479.59
2023-03-26T18:16:51.590Z,101477.78
2023-03-26T18:18:59.330Z,101475.16
2023-03-26T18:21:08.124Z,101483.00
2023-03-26T18:23:15.324Z,101483.00
2023-03-26T18:25:25.415Z,101484.72
2023-03-26T18:27:39.106Z,101480.31
2023-03-26T18:29:47.754Z,101484.72
2023-03-26T18:32:00.823Z,101493.47
2023-03-26T18:34:15.461Z,101483.84
2023-03-26T18:36:21.924Z,101487.38
2023-03-26T18:38:35.266Z,101493.41
2023-03-26T18:40:44.437Z,101499.56
2023-03-26T18:42:52.301Z,101491.81
2023-03-26T18:45:00.881Z,101502.38
2023-03-26T18:47:09.986Z,101518.38
2023-03-26T18:49:16.239Z,101515.00
2023-03-26T18:51:23.385Z,101512.66
2023-03-26T18:53:31.095Z,101513.75
2023-03-26T18:55:39.770Z,101518.16
2023-03-26T18:57:44.210Z,101530.38
2023-03-26T18:59:51.435Z,101522.34
2023-03-26T19:01:57.435Z,101526.75
2023-03-26T19:04:04.212Z,101533.78
2023-03-26T19:06:10.496Z,101536.41
2023-03-26T19:08:18.597Z,101539.13
2023-03-26T19:10:23.861Z,101539.06
2023-03-26T19:12:33.201Z,101534.59
2023-03-26T19:14:54.985Z,101548.63
2023-03-26T19:17:02.203Z,101548.63
2023-03-26T19:19:08.192Z,101552.19
2023-03-26T19:21:12.037Z,101553.97
2023-03-26T19:23:20.011Z,101558.38
2023-03-26T19:25:26.965Z,101557.56
2023-03-26T19:27:30.795Z,101568.91
2023-03-26T19:29:36.688Z,101577.66
2023-03-26T19:31:40.661Z,101578.56
2023-03-26T19:33:45.896Z,101578.50
2023-03-26T19:35:56.713Z,101588.09
2023-03-26T19:38:00.527Z,101578.50
2023-03-26T19:40:16.050Z,101583.75
2023-03-26T19:42:23.346Z,101588.28
2023-03-26T19:44:29.105Z,101585.88
2023-03-26T19:46:53.879Z,101594.84
2023-03-26T19:48:59.245Z,101599.44
2023-03-26T19:51:05.612Z,101610.19
2023-03-26T19:53:19.077Z,101610.31
2023-03-26T19:55:25.400Z,101614.75
2023-03-26T19:57:31.160Z,101613.09
2023-03-26T19:59:34.853Z,101617.56
2023-03-26T20:01:38.871Z,101612.34
2023-03-26T20:03:44.488Z,101612.50
2023-03-26T20:05:48.310Z,101621.41
2023-03-26T20:07:51.958Z,101618.97
2023-03-26T20:09:56.319Z,101620.03
2023-03-26T20:12:01.679Z,101624.53
2023-03-26T20:14:14.224Z,101626.44
2023-03-26T20:16:23.600Z,101622.97
2023-03-26T20:18:27.756Z,101620.47
2023-03-26T20:20:31.406Z,101625.72
2023-03-26T20:22:35.024Z,101631.09
2023-03-26T20:24:38.709Z,101640.75
2023-03-26T20:26:42.418Z,101637.22
2023-03-26T20:28:52.724Z,101645.06
2023-03-26T20:30:57.196Z,101648.53
2023-03-26T20:33:12.752Z,101651.16
2023-03-26T20:35:19.573Z,101660.09
2023-03-26T20:37:41.007Z,101646.91
2023-03-26T20:39:45.785Z,101650.44
2023-03-26T20:41:51.468Z,101654.81
2023-03-26T20:43:56.388Z,101658.31
2023-03-26T20:46:00.968Z,101653.97
2023-03-26T20:48:04.816Z,101654.94
2023-03-26T20:50:12.882Z,101655.94
2023-03-26T20:52:18.966Z,101656.91
2023-03-26T20:54:24.752Z,101660.56
2023-03-26T20:56:29.331Z,101655.41
2023-03-26T20:58:33.396Z,101655.47
2023-03-26T21:00:38.435Z,101662.59
2023-03-26T21:02:43.335Z,101663.53
2023-03-26T21:04:48.350Z,101663.75
2023-03-26T21:06:55.360Z,101661.25
2023-03-26T21:09:05.383Z,101664.88
2023-03-26T21:11:26.500Z,101668.50
2023-03-26T21:13:38.168Z,101681.81
2023-03-26T21:15:43.871Z,101685.44
2023-03-26T21:17:48.143Z,101683.88
2023-03-26T21:19:52.462Z,101690.13
2023-03-26T21:22:04.890Z,101692.97
2023-03-26T21:24:19.077Z,101701.91
2023-03-26T21:26:30.665Z,101710.78
2023-03-26T21:28:42.384Z,101712.69
2023-03-26T21:30:48.930Z,101721.56
2023-03-26T21:32:52.995Z,101719.03
2023-03-26T21:34:59.633Z,101720.81
2023-03-26T21:37:04.043Z,101726.19
2023-03-26T21:39:08.537Z,101728.91
2023-03-26T21:41:26.497Z,101736.03
2023-03-26T21:43:30.466Z,101739.66
2023-03-26T21:45:34.610Z,101738.91
2023-03-26T21:47:41.556Z,101734.59
2023-03-26T21:49:46.371Z,101734.69
2023-03-26T21:51:50.831Z,101731.22
2023-03-26T21:53:55.272Z,101733.91
2023-03-26T21:56:06.677Z,101736.63
2023-03-26T21:58:33.894Z,101743.75
2023-03-26T22:00:44.479Z,101742.09
2023-03-26T22:03:07.648Z,101747.44
2023-03-26T22:05:16.211Z,101751.94
2023-03-26T22:07:22.779Z,101748.47
2023-03-26T22:09:35.769Z,101752.88
2023-03-26T22:11:40.962Z,101759.09
2023-03-26T22:13:44.496Z,101755.63
2023-03-26T22:15:48.077Z,101758.31
2023-03-26T22:17:54.368Z,101758.38
2023-03-26T22:20:01.339Z,101766.25
2023-03-26T22:22:05.484Z,101762.72
2023-03-26T22:24:09.507Z,101764.50
2023-03-26T22:26:13.283Z,101766.31
2023-03-26T22:28:16.964Z,101770.72
2023-03-26T22:30:22.078Z,101776.00
2023-03-26T22:32:25.620Z,101780.47
2023-03-26T22:34:36.516Z,101781.44
2023-03-26T22:36:41.480Z,101782.41
2023-03-26T22:38:45.313Z,101791.25
2023-03-26T22:40:56.943Z,101789.59
2023-03-26T22:43:00.872Z,101787.88
2023-03-26T22:45:05.696Z,101789.72
2023-03-26T22:47:09.600Z,101801.09
2023-03-26T22:49:13.359Z,101797.63
2023-03-26T22:51:17.809Z,101801.16
2023-03-26T22:53:23.926Z,101801.22
2023-03-26T22:55:29.812Z,101808.28
2023-03-26T22:57:34.071Z,101813.66
2023-03-26T22:59:37.602Z,101807.63
2023-03-26T23:01:41.641Z,101811.22
2023-03-26T23:03:46.114Z,101816.50
2023-03-26T23:05:59.727Z,101821.84
2023-03-26T23:08:08.921Z,101826.28
2023-03-26T23:10:23.344Z,101826.31
2023-03-26T23:12:35.580Z,101832.47
2023-03-26T23:14:39.508Z,101829.84
2023-03-26T23:16:45.876Z,101831.56
2023-03-26T23:18:49.664Z,101835.91
2023-03-26T23:20:55.641Z,101838.56
2023-03-26T23:22:59.446Z,101839.50
2023-03-26T23:25:03.447Z,101834.34
2023-03-26T23:27:09.093Z,101840.50
2023-03-26T23:29:14.145Z,101844.84
2023-03-26T23:31:17.818Z,101851.88
2023-03-26T23:33:22.864Z,101840.50
2023-03-26T23:35:26.688Z,101839.66
2023-03-26T23:37:35.312Z,101845.81
2023-03-26T23:39:39.228Z,101848.53
2023-03-26T23:41:42.840Z,101853.00
2023-03-26T23:43:53.546Z,101852.16
2023-03-26T23:45:59.711Z,101853.91
2023-03-26T23:48:03.674Z,101858.28
2023-03-26T23:50:09.933Z,101853.13
2023-03-26T23:52:13.862Z,101860.19
2023-03-26T23:54:17.517Z,101858.50
2023-03-26T23:56:21.335Z,101862.88
2023-03-26T23:58:26.648Z,101859.44
